sensor_id;sensor_type;location;lat;lon;timestamp;P1;durP1;ratioP1;P2;durP2;ratioP2
7941;SDS011;4016;50.758;7.150;2023-04-24T00:00:13;1.60;;;1.50;;
7941;SDS011;4016;50.758;7.150;2023-04-24T00:05:15;1.30;;;1.30;;
7941;SDS011;4016;50.758;7.150;2023-04-24T00:10:17;1.67;;;1.57;;
7941;SDS011;4016;50.758;7.150;2023-04-24T00:15:17;0.80;;;0.80;;
7941;SDS011;4016;50.758;7.150;2023-04-24T00:20:18;1.57;;;1.47;;
7941;SDS011;4016;50.758;7.150;2023-04-24T00:25:18;1.10;;;1.00;;
7941;SDS011;4016;50.758;7.150;2023-04-24T00:30:19;1.20;;;1.10;;
7941;SDS011;4016;50.758;7.150;2023-04-24T00:35:19;1.33;;;1.23;;
7941;SDS011;4016;50.758;7.150;2023-04-24T00:40:20;1.10;;;1.10;;
7941;SDS011;4016;50.758;7.150;2023-04-24T00:45:20;1.10;;;0.97;;
7941;SDS011;4016;50.758;7.150;2023-04-24T00:50:21;1.10;;;1.10;;
7941;SDS011;4016;50.758;7.150;2023-04-24T00:55:21;1.03;;;1.03;;
7941;SDS011;4016;50.758;7.150;2023-04-24T01:00:21;0.83;;;0.83;;
7941;SDS011;4016;50.758;7.150;2023-04-24T01:05:22;1.13;;;1.07;;
7941;SDS011;4016;50.758;7.150;2023-04-24T01:10:23;0.80;;;0.80;;
7941;SDS011;4016;50.758;7.150;2023-04-24T01:15:25;1.60;;;1.13;;
7941;SDS011;4016;50.758;7.150;2023-04-24T01:20:26;1.80;;;1.00;;
7941;SDS011;4016;50.758;7.150;2023-04-24T01:25:26;0.90;;;0.90;;
7941;SDS011;4016;50.758;7.150;2023-04-24T01:30:29;1.00;;;0.93;;
7941;SDS011;4016;50.758;7.150;2023-04-24T01:35:30;0.73;;;0.73;;
7941;SDS011;4016;50.758;7.150;2023-04-24T01:40:30;1.93;;;1.77;;
7941;SDS011;4016;50.758;7.150;2023-04-24T01:45:31;1.53;;;1.47;;
7941;SDS011;4016;50.758;7.150;2023-04-24T01:50:32;1.70;;;1.60;;
7941;SDS011;4016;50.758;7.150;2023-04-24T01:55:32;3.33;;;2.10;;
7941;SDS011;4016;50.758;7.150;2023-04-24T02:00:33;1.63;;;1.53;;
7941;SDS011;4016;50.758;7.150;2023-04-24T02:05:33;2.07;;;1.97;;
7941;SDS011;4016;50.758;7.150;2023-04-24T02:10:34;1.70;;;1.60;;
7941;SDS011;4016;50.758;7.150;2023-04-24T02:15:34;2.07;;;1.97;;
7941;SDS011;4016;50.758;7.150;2023-04-24T02:20:35;2.30;;;2.10;;
7941;SDS011;4016;50.758;7.150;2023-04-24T02:25:36;2.67;;;2.37;;
7941;SDS011;4016;50.758;7.150;2023-04-24T02:30:37;3.13;;;2.83;;
7941;SDS011;4016;50.758;7.150;2023-04-24T02:35:37;3.33;;;3.03;;
7941;SDS011;4016;50.758;7.150;2023-04-24T02:40:38;3.23;;;2.93;;
7941;SDS011;4016;50.758;7.150;2023-04-24T02:45:38;3.90;;;3.47;;
7941;SDS011;4016;50.758;7.150;2023-04-24T02:50:39;4.37;;;3.60;;
7941;SDS011;4016;50.758;7.150;2023-04-24T02:55:39;4.07;;;3.43;;
7941;SDS011;4016;50.758;7.150;2023-04-24T03:00:40;3.60;;;3.27;;
7941;SDS011;4016;50.758;7.150;2023-04-24T03:05:40;3.33;;;3.03;;
7941;SDS011;4016;50.758;7.150;2023-04-24T03:10:40;3.50;;;3.20;;
7941;SDS011;4016;50.758;7.150;2023-04-24T03:15:41;4.87;;;3.57;;
7941;SDS011;4016;50.758;7.150;2023-04-24T03:20:41;3.77;;;3.40;;
7941;SDS011;4016;50.758;7.150;2023-04-24T03:25:42;6.50;;;4.17;;
7941;SDS011;4016;50.758;7.150;2023-04-24T03:30:42;5.80;;;3.90;;
7941;SDS011;4016;50.758;7.150;2023-04-24T03:35:43;4.17;;;3.40;;
7941;SDS011;4016;50.758;7.150;2023-04-24T03:40:43;4.37;;;3.70;;
7941;SDS011;4016;50.758;7.150;2023-04-24T03:45:44;5.00;;;3.47;;
7941;SDS011;4016;50.758;7.150;2023-04-24T03:50:44;5.50;;;4.10;;
7941;SDS011;4016;50.758;7.150;2023-04-24T03:55:45;5.07;;;3.83;;
7941;SDS011;4016;50.758;7.150;2023-04-24T04:00:45;5.23;;;3.80;;
7941;SDS011;4016;50.758;7.150;2023-04-24T04:05:47;4.50;;;3.90;;
7941;SDS011;4016;50.758;7.150;2023-04-24T04:10:48;3.57;;;3.27;;
7941;SDS011;4016;50.758;7.150;2023-04-24T04:15:48;4.80;;;3.90;;
7941;SDS011;4016;50.758;7.150;2023-04-24T04:20:49;4.60;;;3.60;;
7941;SDS011;4016;50.758;7.150;2023-04-24T04:25:49;4.07;;;3.30;;
7941;SDS011;4016;50.758;7.150;2023-04-24T04:30:51;4.10;;;3.70;;
7941;SDS011;4016;50.758;7.150;2023-04-24T04:35:55;6.27;;;3.90;;
7941;SDS011;4016;50.758;7.150;2023-04-24T04:40:56;4.30;;;3.90;;
7941;SDS011;4016;50.758;7.150;2023-04-24T04:45:57;4.37;;;3.97;;
7941;SDS011;4016;50.758;7.150;2023-04-24T04:50:57;3.77;;;3.43;;
7941;SDS011;4016;50.758;7.150;2023-04-24T04:55:58;4.83;;;3.83;;
7941;SDS011;4016;50.758;7.150;2023-04-24T05:00:59;4.77;;;3.83;;
7941;SDS011;4016;50.758;7.150;2023-04-24T05:06:00;7.57;;;3.97;;
7941;SDS011;4016;50.758;7.150;2023-04-24T05:11:00;4.57;;;3.90;;
7941;SDS011;4016;50.758;7.150;2023-04-24T05:16:01;4.20;;;3.53;;
7941;SDS011;4016;50.758;7.150;2023-04-24T05:21:01;4.13;;;3.73;;
7941;SDS011;4016;50.758;7.150;2023-04-24T05:26:02;3.90;;;3.60;;
7941;SDS011;4016;50.758;7.150;2023-04-24T05:31:02;6.57;;;3.60;;
7941;SDS011;4016;50.758;7.150;2023-04-24T05:36:03;4.70;;;4.20;;
7941;SDS011;4016;50.758;7.150;2023-04-24T05:41:05;6.63;;;4.50;;
7941;SDS011;4016;50.758;7.150;2023-04-24T05:46:05;4.70;;;4.30;;
7941;SDS011;4016;50.758;7.150;2023-04-24T05:51:06;6.43;;;3.97;;
7941;SDS011;4016;50.758;7.150;2023-04-24T05:56:06;5.40;;;3.83;;
7941;SDS011;4016;50.758;7.150;2023-04-24T06:01:06;4.63;;;4.03;;
7941;SDS011;4016;50.758;7.150;2023-04-24T06:06:07;4.30;;;3.80;;
7941;SDS011;4016;50.758;7.150;2023-04-24T06:11:08;4.53;;;4.00;;
7941;SDS011;4016;50.758;7.150;2023-04-24T06:16:08;5.10;;;3.70;;
7941;SDS011;4016;50.758;7.150;2023-04-24T06:21:09;4.27;;;3.87;;
7941;SDS011;4016;50.758;7.150;2023-04-24T06:26:09;4.17;;;3.77;;
7941;SDS011;4016;50.758;7.150;2023-04-24T06:31:10;4.40;;;3.97;;
7941;SDS011;4016;50.758;7.150;2023-04-24T06:36:10;4.37;;;3.73;;
7941;SDS011;4016;50.758;7.150;2023-04-24T06:41:11;5.27;;;4.67;;
7941;SDS011;4016;50.758;7.150;2023-04-24T06:46:12;5.60;;;4.23;;
7941;SDS011;4016;50.758;7.150;2023-04-24T06:51:13;4.37;;;3.80;;
7941;SDS011;4016;50.758;7.150;2023-04-24T06:56:13;4.63;;;4.00;;
7941;SDS011;4016;50.758;7.150;2023-04-24T07:01:14;5.20;;;3.50;;
7941;SDS011;4016;50.758;7.150;2023-04-24T07:06:14;4.30;;;3.90;;
7941;SDS011;4016;50.758;7.150;2023-04-24T07:11:16;3.93;;;3.00;;
7941;SDS011;4016;50.758;7.150;2023-04-24T07:16:16;3.50;;;3.20;;
7941;SDS011;4016;50.758;7.150;2023-04-24T07:21:16;3.67;;;3.30;;
7941;SDS011;4016;50.758;7.150;2023-04-24T07:26:17;4.63;;;3.23;;
7941;SDS011;4016;50.758;7.150;2023-04-24T07:31:17;2.97;;;2.67;;
7941;SDS011;4016;50.758;7.150;2023-04-24T07:36:18;3.70;;;3.17;;
7941;SDS011;4016;50.758;7.150;2023-04-24T07:41:19;3.13;;;2.83;;
7941;SDS011;4016;50.758;7.150;2023-04-24T07:46:20;2.37;;;2.17;;
7941;SDS011;4016;50.758;7.150;2023-04-24T07:51:21;2.03;;;1.93;;
7941;SDS011;4016;50.758;7.150;2023-04-24T07:56:21;2.30;;;2.10;;
7941;SDS011;4016;50.758;7.150;2023-04-24T08:01:22;2.40;;;2.17;;
7941;SDS011;4016;50.758;7.150;2023-04-24T08:06:22;4.63;;;1.97;;
7941;SDS011;4016;50.758;7.150;2023-04-24T08:11:24;2.53;;;2.33;;
7941;SDS011;4016;50.758;7.150;2023-04-24T08:16:24;1.80;;;1.70;;
7941;SDS011;4016;50.758;7.150;2023-04-24T08:21:25;1.40;;;1.30;;
7941;SDS011;4016;50.758;7.150;2023-04-24T08:26:27;1.40;;;1.30;;
7941;SDS011;4016;50.758;7.150;2023-04-24T08:31:27;1.53;;;1.43;;
7941;SDS011;4016;50.758;7.150;2023-04-24T08:36:27;1.37;;;1.27;;
7941;SDS011;4016;50.758;7.150;2023-04-24T08:41:28;1.73;;;1.63;;
7941;SDS011;4016;50.758;7.150;2023-04-24T08:46:29;2.00;;;1.83;;
7941;SDS011;4016;50.758;7.150;2023-04-24T08:51:30;1.73;;;1.63;;
7941;SDS011;4016;50.758;7.150;2023-04-24T08:56:31;1.60;;;1.50;;
7941;SDS011;4016;50.758;7.150;2023-04-24T09:01:33;1.73;;;1.63;;
7941;SDS011;4016;50.758;7.150;2023-04-24T09:06:35;1.77;;;1.67;;
7941;SDS011;4016;50.758;7.150;2023-04-24T09:11:36;2.37;;;2.17;;
7941;SDS011;4016;50.758;7.150;2023-04-24T09:16:37;3.60;;;3.00;;
7941;SDS011;4016;50.758;7.150;2023-04-24T09:21:37;3.00;;;2.70;;
7941;SDS011;4016;50.758;7.150;2023-04-24T09:26:37;4.70;;;3.43;;
7941;SDS011;4016;50.758;7.150;2023-04-24T09:31:38;5.20;;;3.13;;
7941;SDS011;4016;50.758;7.150;2023-04-24T09:36:40;2.90;;;2.70;;
7941;SDS011;4016;50.758;7.150;2023-04-24T09:46:53;3.93;;;2.93;;
7941;SDS011;4016;50.758;7.150;2023-04-24T09:57:08;3.57;;;2.60;;
7941;SDS011;4016;50.758;7.150;2023-04-24T10:02:19;3.30;;;2.97;;
7941;SDS011;4016;50.758;7.150;2023-04-24T10:07:20;3.60;;;3.30;;
7941;SDS011;4016;50.758;7.150;2023-04-24T10:12:21;4.07;;;2.77;;
7941;SDS011;4016;50.758;7.150;2023-04-24T10:17:21;3.60;;;3.03;;
7941;SDS011;4016;50.758;7.150;2023-04-24T10:22:23;4.33;;;3.93;;
7941;SDS011;4016;50.758;7.150;2023-04-24T10:27:24;4.93;;;3.13;;
7941;SDS011;4016;50.758;7.150;2023-04-24T10:32:26;3.97;;;3.17;;
7941;SDS011;4016;50.758;7.150;2023-04-24T10:37:27;4.27;;;3.40;;
7941;SDS011;4016;50.758;7.150;2023-04-24T10:42:27;3.70;;;3.30;;
7941;SDS011;4016;50.758;7.150;2023-04-24T10:47:28;5.50;;;2.93;;
7941;SDS011;4016;50.758;7.150;2023-04-24T10:52:43;3.90;;;3.40;;
7941;SDS011;4016;50.758;7.150;2023-04-24T10:58:01;6.23;;;3.80;;
7941;SDS011;4016;50.758;7.150;2023-04-24T11:03:05;5.77;;;3.40;;
7941;SDS011;4016;50.758;7.150;2023-04-24T11:08:30;6.90;;;3.97;;
7941;SDS011;4016;50.758;7.150;2023-04-24T11:14:14;5.10;;;3.80;;
7941;SDS011;4016;50.758;7.150;2023-04-24T11:19:06;5.03;;;4.00;;
7941;SDS011;4016;50.758;7.150;2023-04-24T11:29:42;5.37;;;4.87;;
7941;SDS011;4016;50.758;7.150;2023-04-24T11:34:56;8.53;;;4.87;;
7941;SDS011;4016;50.758;7.150;2023-04-24T11:39:58;7.03;;;5.20;;
7941;SDS011;4016;50.758;7.150;2023-04-24T11:44:58;6.27;;;4.93;;
7941;SDS011;4016;50.758;7.150;2023-04-24T11:50:00;6.40;;;4.70;;
7941;SDS011;4016;50.758;7.150;2023-04-24T11:55:01;7.97;;;4.53;;
7941;SDS011;4016;50.758;7.150;2023-04-24T12:00:02;8.97;;;5.27;;
7941;SDS011;4016;50.758;7.150;2023-04-24T12:05:05;5.80;;;4.60;;
7941;SDS011;4016;50.758;7.150;2023-04-24T12:10:06;7.23;;;4.80;;
7941;SDS011;4016;50.758;7.150;2023-04-24T12:15:07;5.07;;;4.47;;
7941;SDS011;4016;50.758;7.150;2023-04-24T12:20:08;7.37;;;4.10;;
7941;SDS011;4016;50.758;7.150;2023-04-24T12:25:10;6.47;;;4.30;;
7941;SDS011;4016;50.758;7.150;2023-04-24T12:30:14;5.70;;;4.73;;
7941;SDS011;4016;50.758;7.150;2023-04-24T12:35:19;6.00;;;4.27;;
7941;SDS011;4016;50.758;7.150;2023-04-24T12:40:21;5.60;;;4.23;;
7941;SDS011;4016;50.758;7.150;2023-04-24T12:45:25;6.43;;;4.67;;
7941;SDS011;4016;50.758;7.150;2023-04-24T12:50:27;5.97;;;4.33;;
7941;SDS011;4016;50.758;7.150;2023-04-24T12:55:28;7.87;;;4.80;;
7941;SDS011;4016;50.758;7.150;2023-04-24T13:00:28;6.57;;;5.20;;
7941;SDS011;4016;50.758;7.150;2023-04-24T13:05:29;6.93;;;4.77;;
7941;SDS011;4016;50.758;7.150;2023-04-24T13:10:29;6.10;;;4.30;;
7941;SDS011;4016;50.758;7.150;2023-04-24T13:15:30;5.87;;;5.20;;
7941;SDS011;4016;50.758;7.150;2023-04-24T13:20:30;8.63;;;5.40;;
7941;SDS011;4016;50.758;7.150;2023-04-24T13:25:34;5.00;;;4.30;;
7941;SDS011;4016;50.758;7.150;2023-04-24T13:30:36;6.23;;;4.43;;
7941;SDS011;4016;50.758;7.150;2023-04-24T13:35:36;5.90;;;3.93;;
7941;SDS011;4016;50.758;7.150;2023-04-24T13:40:37;8.60;;;4.20;;
7941;SDS011;4016;50.758;7.150;2023-04-24T13:45:37;10.77;;;4.63;;
7941;SDS011;4016;50.758;7.150;2023-04-24T13:50:37;5.70;;;4.07;;
7941;SDS011;4016;50.758;7.150;2023-04-24T13:55:38;5.80;;;5.20;;
7941;SDS011;4016;50.758;7.150;2023-04-24T14:00:39;7.63;;;4.93;;
7941;SDS011;4016;50.758;7.150;2023-04-24T14:05:40;7.37;;;4.63;;
7941;SDS011;4016;50.758;7.150;2023-04-24T14:10:40;6.47;;;4.63;;
7941;SDS011;4016;50.758;7.150;2023-04-24T14:15:40;8.87;;;4.77;;
7941;SDS011;4016;50.758;7.150;2023-04-24T14:20:41;7.67;;;4.43;;
7941;SDS011;4016;50.758;7.150;2023-04-24T14:25:41;8.53;;;4.83;;
7941;SDS011;4016;50.758;7.150;2023-04-24T14:30:42;5.80;;;4.77;;
7941;SDS011;4016;50.758;7.150;2023-04-24T14:35:42;6.03;;;4.73;;
7941;SDS011;4016;50.758;7.150;2023-04-24T14:40:43;6.40;;;4.77;;
7941;SDS011;4016;50.758;7.150;2023-04-24T14:45:43;7.33;;;4.57;;
7941;SDS011;4016;50.758;7.150;2023-04-24T14:50:44;6.53;;;4.50;;
7941;SDS011;4016;50.758;7.150;2023-04-24T14:55:45;7.27;;;4.73;;
7941;SDS011;4016;50.758;7.150;2023-04-24T15:00:45;5.57;;;4.70;;
7941;SDS011;4016;50.758;7.150;2023-04-24T15:05:45;5.47;;;4.70;;
7941;SDS011;4016;50.758;7.150;2023-04-24T15:10:46;4.80;;;4.30;;
7941;SDS011;4016;50.758;7.150;2023-04-24T15:15:47;7.73;;;4.33;;
7941;SDS011;4016;50.758;7.150;2023-04-24T15:20:47;5.53;;;4.27;;
7941;SDS011;4016;50.758;7.150;2023-04-24T15:25:48;6.73;;;4.43;;
7941;SDS011;4016;50.758;7.150;2023-04-24T15:30:48;6.23;;;3.90;;
7941;SDS011;4016;50.758;7.150;2023-04-24T15:35:49;4.43;;;4.03;;
7941;SDS011;4016;50.758;7.150;2023-04-24T15:40:50;5.77;;;4.20;;
7941;SDS011;4016;50.758;7.150;2023-04-24T15:45:51;6.30;;;4.10;;
7941;SDS011;4016;50.758;7.150;2023-04-24T15:50:51;5.83;;;4.20;;
7941;SDS011;4016;50.758;7.150;2023-04-24T15:55:51;7.67;;;4.13;;
7941;SDS011;4016;50.758;7.150;2023-04-24T16:00:52;8.77;;;4.10;;
7941;SDS011;4016;50.758;7.150;2023-04-24T16:05:53;8.03;;;4.13;;
7941;SDS011;4016;50.758;7.150;2023-04-24T16:10:53;5.13;;;4.03;;
7941;SDS011;4016;50.758;7.150;2023-04-24T16:15:53;4.27;;;3.70;;
7941;SDS011;4016;50.758;7.150;2023-04-24T16:20:55;6.47;;;4.13;;
7941;SDS011;4016;50.758;7.150;2023-04-24T16:25:56;6.23;;;4.33;;
7941;SDS011;4016;50.758;7.150;2023-04-24T16:30:56;5.60;;;4.17;;
7941;SDS011;4016;50.758;7.150;2023-04-24T16:35:57;4.90;;;3.90;;
7941;SDS011;4016;50.758;7.150;2023-04-24T16:40:57;6.97;;;4.30;;
7941;SDS011;4016;50.758;7.150;2023-04-24T16:45:57;6.70;;;4.60;;
7941;SDS011;4016;50.758;7.150;2023-04-24T16:50:59;6.23;;;3.70;;
7941;SDS011;4016;50.758;7.150;2023-04-24T16:56:00;5.43;;;4.00;;
7941;SDS011;4016;50.758;7.150;2023-04-24T17:01:00;6.23;;;4.20;;
7941;SDS011;4016;50.758;7.150;2023-04-24T17:06:00;8.90;;;4.53;;
7941;SDS011;4016;50.758;7.150;2023-04-24T17:11:01;5.47;;;4.00;;
7941;SDS011;4016;50.758;7.150;2023-04-24T17:16:01;8.33;;;4.00;;
7941;SDS011;4016;50.758;7.150;2023-04-24T17:21:01;5.27;;;4.67;;
7941;SDS011;4016;50.758;7.150;2023-04-24T17:26:02;4.57;;;4.10;;
7941;SDS011;4016;50.758;7.150;2023-04-24T17:31:02;6.70;;;4.20;;
7941;SDS011;4016;50.758;7.150;2023-04-24T17:36:03;5.77;;;4.27;;
7941;SDS011;4016;50.758;7.150;2023-04-24T17:41:05;5.37;;;4.07;;
7941;SDS011;4016;50.758;7.150;2023-04-24T17:46:06;7.77;;;4.60;;
7941;SDS011;4016;50.758;7.150;2023-04-24T17:51:06;5.93;;;3.70;;
7941;SDS011;4016;50.758;7.150;2023-04-24T17:56:07;5.27;;;4.37;;
7941;SDS011;4016;50.758;7.150;2023-04-24T18:01:08;5.03;;;4.23;;
7941;SDS011;4016;50.758;7.150;2023-04-24T18:06:08;4.63;;;3.63;;
7941;SDS011;4016;50.758;7.150;2023-04-24T18:11:09;6.70;;;3.87;;
7941;SDS011;4016;50.758;7.150;2023-04-24T18:16:09;4.53;;;4.00;;
7941;SDS011;4016;50.758;7.150;2023-04-24T18:21:09;4.43;;;4.00;;
7941;SDS011;4016;50.758;7.150;2023-04-24T18:26:10;5.47;;;4.40;;
7941;SDS011;4016;50.758;7.150;2023-04-24T18:31:15;5.63;;;4.90;;
7941;SDS011;4016;50.758;7.150;2023-04-24T18:36:16;7.30;;;4.20;;
7941;SDS011;4016;50.758;7.150;2023-04-24T18:41:16;4.57;;;4.03;;
7941;SDS011;4016;50.758;7.150;2023-04-24T18:46:16;4.93;;;4.07;;
7941;SDS011;4016;50.758;7.150;2023-04-24T18:51:17;4.57;;;3.50;;
7941;SDS011;4016;50.758;7.150;2023-04-24T18:56:17;7.07;;;3.70;;
7941;SDS011;4016;50.758;7.150;2023-04-24T19:01:18;4.37;;;3.77;;
7941;SDS011;4016;50.758;7.150;2023-04-24T19:06:19;3.47;;;3.17;;
7941;SDS011;4016;50.758;7.150;2023-04-24T19:11:19;5.73;;;3.40;;
7941;SDS011;4016;50.758;7.150;2023-04-24T19:16:20;3.83;;;2.97;;
7941;SDS011;4016;50.758;7.150;2023-04-24T19:21:20;5.17;;;3.70;;
7941;SDS011;4016;50.758;7.150;2023-04-24T19:26:22;3.83;;;3.53;;
7941;SDS011;4016;50.758;7.150;2023-04-24T19:31:26;4.33;;;3.33;;
7941;SDS011;4016;50.758;7.150;2023-04-24T19:36:26;3.57;;;3.20;;
7941;SDS011;4016;50.758;7.150;2023-04-24T19:41:30;3.90;;;3.17;;
7941;SDS011;4016;50.758;7.150;2023-04-24T19:46:30;3.43;;;3.03;;
7941;SDS011;4016;50.758;7.150;2023-04-24T19:51:31;4.37;;;2.60;;
7941;SDS011;4016;50.758;7.150;2023-04-24T19:56:32;4.93;;;3.10;;
7941;SDS011;4016;50.758;7.150;2023-04-24T20:01:32;3.50;;;3.20;;
7941;SDS011;4016;50.758;7.150;2023-04-24T20:06:33;3.83;;;3.17;;
7941;SDS011;4016;50.758;7.150;2023-04-24T20:11:33;2.93;;;2.73;;
7941;SDS011;4016;50.758;7.150;2023-04-24T20:16:33;4.13;;;3.40;;
7941;SDS011;4016;50.758;7.150;2023-04-24T20:21:34;3.10;;;2.80;;
7941;SDS011;4016;50.758;7.150;2023-04-24T20:26:35;3.00;;;2.70;;
7941;SDS011;4016;50.758;7.150;2023-04-24T20:31:36;5.53;;;3.10;;
7941;SDS011;4016;50.758;7.150;2023-04-24T20:36:36;3.50;;;2.90;;
7941;SDS011;4016;50.758;7.150;2023-04-24T20:41:37;5.27;;;3.17;;
7941;SDS011;4016;50.758;7.150;2023-04-24T20:46:37;4.73;;;3.03;;
7941;SDS011;4016;50.758;7.150;2023-04-24T20:51:37;3.10;;;2.80;;
7941;SDS011;4016;50.758;7.150;2023-04-24T20:56:38;3.60;;;3.17;;
7941;SDS011;4016;50.758;7.150;2023-04-24T21:01:38;4.77;;;3.10;;
7941;SDS011;4016;50.758;7.150;2023-04-24T21:06:39;3.53;;;3.23;;
7941;SDS011;4016;50.758;7.150;2023-04-24T21:11:39;4.40;;;3.40;;
7941;SDS011;4016;50.758;7.150;2023-04-24T21:16:39;6.80;;;3.10;;
7941;SDS011;4016;50.758;7.150;2023-04-24T21:21:40;3.20;;;2.93;;
7941;SDS011;4016;50.758;7.150;2023-04-24T21:26:40;3.87;;;3.20;;
7941;SDS011;4016;50.758;7.150;2023-04-24T21:31:41;3.27;;;2.97;;
7941;SDS011;4016;50.758;7.150;2023-04-24T21:36:41;3.77;;;3.10;;
7941;SDS011;4016;50.758;7.150;2023-04-24T21:41:41;3.20;;;3.00;;
7941;SDS011;4016;50.758;7.150;2023-04-24T21:46:42;3.47;;;3.07;;
7941;SDS011;4016;50.758;7.150;2023-04-24T21:51:43;6.07;;;3.50;;
7941;SDS011;4016;50.758;7.150;2023-04-24T21:56:43;4.27;;;2.93;;
7941;SDS011;4016;50.758;7.150;2023-04-24T22:01:43;3.33;;;3.03;;
7941;SDS011;4016;50.758;7.150;2023-04-24T22:06:44;3.77;;;3.37;;
7941;SDS011;4016;50.758;7.150;2023-04-24T22:11:44;5.70;;;3.10;;
7941;SDS011;4016;50.758;7.150;2023-04-24T22:16:45;3.30;;;3.00;;
7941;SDS011;4016;50.758;7.150;2023-04-24T22:21:46;5.50;;;3.43;;
7941;SDS011;4016;50.758;7.150;2023-04-24T22:26:47;6.63;;;3.00;;
7941;SDS011;4016;50.758;7.150;2023-04-24T22:31:47;5.13;;;3.10;;
7941;SDS011;4016;50.758;7.150;2023-04-24T22:36:49;3.23;;;2.80;;
7941;SDS011;4016;50.758;7.150;2023-04-24T22:41:49;3.50;;;2.80;;
7941;SDS011;4016;50.758;7.150;2023-04-24T22:46:50;4.00;;;2.90;;
7941;SDS011;4016;50.758;7.150;2023-04-24T22:51:50;4.17;;;3.73;;
7941;SDS011;4016;50.758;7.150;2023-04-24T22:56:52;3.80;;;3.30;;
7941;SDS011;4016;50.758;7.150;2023-04-24T23:01:52;4.77;;;3.60;;
7941;SDS011;4016;50.758;7.150;2023-04-24T23:06:52;4.13;;;3.27;;
7941;SDS011;4016;50.758;7.150;2023-04-24T23:11:53;6.97;;;3.63;;
7941;SDS011;4016;50.758;7.150;2023-04-24T23:16:53;3.27;;;3.03;;
7941;SDS011;4016;50.758;7.150;2023-04-24T23:21:54;4.87;;;3.30;;
7941;SDS011;4016;50.758;7.150;2023-04-24T23:26:54;3.57;;;3.23;;
7941;SDS011;4016;50.758;7.150;2023-04-24T23:31:55;4.53;;;2.70;;
7941;SDS011;4016;50.758;7.150;2023-04-24T23:36:55;3.47;;;3.17;;
7941;SDS011;4016;50.758;7.150;2023-04-24T23:41:55;4.53;;;3.50;;
7941;SDS011;4016;50.758;7.150;2023-04-24T23:46:57;4.23;;;3.60;;
7941;SDS011;4016;50.758;7.150;2023-04-24T23:51:57;4.63;;;3.50;;
7941;SDS011;4016;50.758;7.150;2023-04-24T23:56:58;4.43;;;3.37;;
